Terminal Aerodrome Forecast
Issued by NWS Tuscon, AZ

Home | Current Version | Previous Version | Text Only | Print | Product List | Glossary On
Versions: 1 2 3 4 5 6 7 8 9 10 11 12 13 14 15
683
FTUS45 KTWC 182326
TAFDUG
TAF
KDUG 182326Z 1900/1924 32006KT P6SM BKN060
     FM190200 36008KT P6SM SCT060
     FM191000 18005KT P6SM FEW120 BKN200
     FM191600 20008KT P6SM BKN100 OVC180
     FM192100 23015G23KT P6SM FEW060 BKN090 OVC150=

USA.gov is the U.S. government's official web portal to all federal, state and local government web resources and services.